KSEM/SEM METAR and TAF weather

Enter ICAO airport designator
Station Type Date Time Source
KSEM METAR 2020/01/24 09:35 UTC NOAA

KSEM 240935Z AUTO 00000KT 1/4SM FG 10/10 A2994 RMK AO2


Station Type Date Time Source
KSEM Decoded METAR 2020/01/24 09:35 UTC NOAA

Craig Field / Selma, AL, United States (KSEM) 32-21N 086-59W
Jan 24, 2020 - 04:35 AM EST / 2020.01.24 0935 UTC
Wind: Calm:0
Visibility: 1/4 mile(s):0
Weather: fog
Temperature: 50 F (10 C)
Dew Point: 50 F (10 C)
Relative Humidity: 100%
Pressure (altimeter): 29.94 in. Hg (1013 hPa)
ob: KSEM 240935Z AUTO 00000KT 1/4SM FG 10/10 A2994 RMK AO2
cycle: 9

Station Type Date Time Source
KSEM TAF UTC NOAA

Error!

Example: see airport list